sensor_id;sensor_type;location;lat;lon;timestamp;pressure;altitude;pressure_sealevel;temperature;humidity
46534;BME280;32260;52.008;4.752;2022-09-01T00:02:13;102277.78;;;18.46;56.30
46534;BME280;32260;52.008;4.752;2022-09-01T00:04:42;102282.25;;;18.45;56.34
46534;BME280;32260;52.008;4.752;2022-09-01T00:07:11;102281.38;;;18.45;57.18
46534;BME280;32260;52.008;4.752;2022-09-01T00:09:38;102272.50;;;18.42;56.33
46534;BME280;32260;52.008;4.752;2022-09-01T00:12:06;102275.28;;;18.39;55.61
46534;BME280;32260;52.008;4.752;2022-09-01T00:14:36;102267.31;;;18.36;56.83
46534;BME280;32260;52.008;4.752;2022-09-01T00:17:06;102267.38;;;18.35;56.79
46534;BME280;32260;52.008;4.752;2022-09-01T00:19:33;102259.44;;;18.30;57.77
46534;BME280;32260;52.008;4.752;2022-09-01T00:22:01;102260.41;;;18.27;57.08
46534;BME280;32260;52.008;4.752;2022-09-01T00:24:28;102260.47;;;18.26;56.49
46534;BME280;32260;52.008;4.752;2022-09-01T00:27:15;102257.88;;;18.23;57.39
46534;BME280;32260;52.008;4.752;2022-09-01T00:29:41;102259.72;;;18.21;57.27
46534;BME280;32260;52.008;4.752;2022-09-01T00:32:09;102266.88;;;18.22;57.38
46534;BME280;32260;52.008;4.752;2022-09-01T00:34:36;102256.25;;;18.17;56.20
46534;BME280;32260;52.008;4.752;2022-09-01T00:37:03;102260.78;;;18.15;57.35
46534;BME280;32260;52.008;4.752;2022-09-01T00:39:29;102262.66;;;18.13;57.69
46534;BME280;32260;52.008;4.752;2022-09-01T00:41:58;102254.63;;;18.11;57.33
46534;BME280;32260;52.008;4.752;2022-09-01T00:44:40;102251.06;;;18.11;57.08
46534;BME280;32260;52.008;4.752;2022-09-01T00:47:06;102254.72;;;18.08;57.66
46534;BME280;32260;52.008;4.752;2022-09-01T00:49:42;102251.16;;;18.08;57.49
46534;BME280;32260;52.008;4.752;2022-09-01T00:52:40;102252.03;;;18.08;57.94
46534;BME280;32260;52.008;4.752;2022-09-01T00:55:14;102242.38;;;18.03;57.47
46534;BME280;32260;52.008;4.752;2022-09-01T00:57:41;102241.56;;;17.99;57.58
46534;BME280;32260;52.008;4.752;2022-09-01T01:00:13;102241.56;;;17.99;57.11
46534;BME280;32260;52.008;4.752;2022-09-01T01:02:41;102237.72;;;18.09;57.50
46534;BME280;32260;52.008;4.752;2022-09-01T01:05:08;102245.28;;;17.95;57.58
46534;BME280;32260;52.008;4.752;2022-09-01T01:07:34;102241.72;;;17.93;56.99
46534;BME280;32260;52.008;4.752;2022-09-01T01:27:43;102238.69;;;17.74;58.52
46534;BME280;32260;52.008;4.752;2022-09-01T01:30:11;102236.97;;;17.71;57.56
46534;BME280;32260;52.008;4.752;2022-09-01T01:32:39;102238.78;;;17.71;58.19
46534;BME280;32260;52.008;4.752;2022-09-01T01:35:09;102242.41;;;17.68;58.17
46534;BME280;32260;52.008;4.752;2022-09-01T01:37:42;102236.16;;;17.68;58.61
46534;BME280;32260;52.008;4.752;2022-09-01T01:40:11;102240.66;;;17.67;58.81
46534;BME280;32260;52.008;4.752;2022-09-01T01:42:44;102242.41;;;17.68;58.90
46534;BME280;32260;52.008;4.752;2022-09-01T01:45:12;102231.78;;;17.65;58.23
46534;BME280;32260;52.008;4.752;2022-09-01T01:47:43;102224.66;;;17.64;58.88
46534;BME280;32260;52.008;4.752;2022-09-01T01:50:16;102235.38;;;17.64;58.80
46534;BME280;32260;52.008;4.752;2022-09-01T01:52:42;102229.19;;;17.62;59.24
46534;BME280;32260;52.008;4.752;2022-09-01T01:55:09;102233.59;;;17.63;58.97
46534;BME280;32260;52.008;4.752;2022-09-01T01:57:38;102238.16;;;17.61;59.47
46534;BME280;32260;52.008;4.752;2022-09-01T02:00:05;102242.72;;;17.57;60.33
46534;BME280;32260;52.008;4.752;2022-09-01T02:02:32;102240.81;;;17.61;59.68
46534;BME280;32260;52.008;4.752;2022-09-01T02:04:58;102244.44;;;17.60;59.16
46534;BME280;32260;52.008;4.752;2022-09-01T02:07:36;102238.97;;;17.63;59.04
46534;BME280;32260;52.008;4.752;2022-09-01T02:10:28;102236.28;;;17.65;59.35
46534;BME280;32260;52.008;4.752;2022-09-01T02:12:57;102246.25;;;17.58;59.72
46534;BME280;32260;52.008;4.752;2022-09-01T02:15:29;102244.44;;;17.60;59.45
46534;BME280;32260;52.008;4.752;2022-09-01T02:17:55;102237.31;;;17.59;58.75
46534;BME280;32260;52.008;4.752;2022-09-01T02:20:25;102232.91;;;17.56;58.93
46534;BME280;32260;52.008;4.752;2022-09-01T02:22:54;102239.13;;;17.57;59.41
46534;BME280;32260;52.008;4.752;2022-09-01T02:25:22;102240.03;;;17.57;59.14
46534;BME280;32260;52.008;4.752;2022-09-01T02:27:48;102232.97;;;17.55;59.58
46534;BME280;32260;52.008;4.752;2022-09-01T02:30:18;102237.41;;;17.54;59.54
46534;BME280;32260;52.008;4.752;2022-09-01T02:32:44;102233.88;;;17.54;59.61
46534;BME280;32260;52.008;4.752;2022-09-01T02:35:10;102238.38;;;17.52;59.60
46534;BME280;32260;52.008;4.752;2022-09-01T02:37:39;102232.09;;;17.53;59.16
46534;BME280;32260;52.008;4.752;2022-09-01T02:40:08;102229.47;;;17.51;59.03
46534;BME280;32260;52.008;4.752;2022-09-01T02:42:37;102227.75;;;17.49;59.90
46534;BME280;32260;52.008;4.752;2022-09-01T02:45:06;102221.56;;;17.46;59.08
46534;BME280;32260;52.008;4.752;2022-09-01T02:47:37;102218.03;;;17.44;59.45
46534;BME280;32260;52.008;4.752;2022-09-01T02:50:09;102217.69;;;17.57;58.80
46534;BME280;32260;52.008;4.752;2022-09-01T02:52:39;102222.63;;;17.41;59.68
46534;BME280;32260;52.008;4.752;2022-09-01T02:55:06;102211.06;;;17.39;59.58
46534;BME280;32260;52.008;4.752;2022-09-01T02:57:33;102216.47;;;17.37;59.25
46534;BME280;32260;52.008;4.752;2022-09-01T03:00:00;102213.78;;;17.36;60.04
46534;BME280;32260;52.008;4.752;2022-09-01T03:02:26;102210.25;;;17.35;59.70
46534;BME280;32260;52.008;4.752;2022-09-01T03:04:54;102212.94;;;17.35;59.92
46534;BME280;32260;52.008;4.752;2022-09-01T03:07:21;102211.97;;;17.38;60.34
46534;BME280;32260;52.008;4.752;2022-09-01T03:09:48;102212.81;;;17.38;60.09
46534;BME280;32260;52.008;4.752;2022-09-01T03:12:15;102205.66;;;17.40;59.51
46534;BME280;32260;52.008;4.752;2022-09-01T03:14:41;102207.41;;;17.41;59.50
46534;BME280;32260;52.008;4.752;2022-09-01T03:17:07;102207.41;;;17.41;59.90
46534;BME280;32260;52.008;4.752;2022-09-01T03:19:33;102213.63;;;17.43;59.78
46534;BME280;32260;52.008;4.752;2022-09-01T03:22:05;102209.06;;;17.45;59.99
46534;BME280;32260;52.008;4.752;2022-09-01T03:24:31;102207.25;;;17.48;60.03
46534;BME280;32260;52.008;4.752;2022-09-01T03:26:57;102208.09;;;17.48;59.65
46534;BME280;32260;52.008;4.752;2022-09-01T03:29:23;102208.94;;;17.50;59.43
46534;BME280;32260;52.008;4.752;2022-09-01T03:31:50;102208.09;;;17.50;59.62
46534;BME280;32260;52.008;4.752;2022-09-01T03:34:16;102205.41;;;17.50;59.34
46534;BME280;32260;52.008;4.752;2022-09-01T03:36:46;102212.66;;;17.46;59.45
46534;BME280;32260;52.008;4.752;2022-09-01T03:39:17;102209.06;;;17.45;59.13
46534;BME280;32260;52.008;4.752;2022-09-01T03:41:44;102214.53;;;17.42;60.06
46534;BME280;32260;52.008;4.752;2022-09-01T03:44:11;102209.16;;;17.42;59.03
46534;BME280;32260;52.008;4.752;2022-09-01T03:46:41;102202.97;;;17.40;59.29
46534;BME280;32260;52.008;4.752;2022-09-01T03:49:08;102197.66;;;17.39;59.19
46534;BME280;32260;52.008;4.752;2022-09-01T03:51:41;102204.84;;;17.37;59.28
46534;BME280;32260;52.008;4.752;2022-09-01T03:54:09;102198.69;;;17.33;59.26
46534;BME280;32260;52.008;4.752;2022-09-01T03:56:35;102203.25;;;17.29;58.70
46534;BME280;32260;52.008;4.752;2022-09-01T03:59:05;102199.78;;;17.26;58.94
46534;BME280;32260;52.008;4.752;2022-09-01T04:01:31;102196.25;;;17.24;58.71
46534;BME280;32260;52.008;4.752;2022-09-01T04:04:02;102199.91;;;17.21;59.39
46534;BME280;32260;52.008;4.752;2022-09-01T04:06:31;102199.94;;;17.20;59.00
46534;BME280;32260;52.008;4.752;2022-09-01T04:08:57;102195.50;;;17.19;59.42
46534;BME280;32260;52.008;4.752;2022-09-01T04:11:27;102203.53;;;17.19;58.63
46534;BME280;32260;52.008;4.752;2022-09-01T04:13:54;102191.13;;;17.16;58.91
46534;BME280;32260;52.008;4.752;2022-09-01T04:16:23;102193.75;;;17.18;59.17
46534;BME280;32260;52.008;4.752;2022-09-01T04:19:11;102196.41;;;17.18;59.76
46534;BME280;32260;52.008;4.752;2022-09-01T04:21:45;102193.66;;;17.21;59.12
46534;BME280;32260;52.008;4.752;2022-09-01T04:24:12;102192.72;;;17.22;58.46
46534;BME280;32260;52.008;4.752;2022-09-01T04:26:41;102197.19;;;17.23;59.31
46534;BME280;32260;52.008;4.752;2022-09-01T04:29:07;102195.34;;;17.25;59.23
46534;BME280;32260;52.008;4.752;2022-09-01T04:31:36;102194.44;;;17.26;58.84
46534;BME280;32260;52.008;4.752;2022-09-01T04:34:04;102197.97;;;17.26;58.97
46534;BME280;32260;52.008;4.752;2022-09-01T04:36:47;102196.22;;;17.25;59.31
46534;BME280;32260;52.008;4.752;2022-09-01T04:39:15;102199.78;;;17.26;58.85
46534;BME280;32260;52.008;4.752;2022-09-01T04:41:43;102191.75;;;17.26;58.52
46534;BME280;32260;52.008;4.752;2022-09-01T04:44:12;102197.97;;;17.26;58.54
46534;BME280;32260;52.008;4.752;2022-09-01T04:46:42;102195.38;;;17.23;58.82
46534;BME280;32260;52.008;4.752;2022-09-01T04:49:11;102195.41;;;17.22;58.60
46534;BME280;32260;52.008;4.752;2022-09-01T04:51:43;102198.09;;;17.22;58.65
46534;BME280;32260;52.008;4.752;2022-09-01T04:54:10;102195.41;;;17.22;58.73
46534;BME280;32260;52.008;4.752;2022-09-01T04:56:40;102195.41;;;17.22;59.18
46534;BME280;32260;52.008;4.752;2022-09-01T04:59:07;102203.44;;;17.22;58.90
46534;BME280;32260;52.008;4.752;2022-09-01T05:01:35;102196.31;;;17.22;58.78
46534;BME280;32260;52.008;4.752;2022-09-01T05:04:12;102197.19;;;17.23;58.43
46534;BME280;32260;52.008;4.752;2022-09-01T05:06:41;102196.31;;;17.22;58.82
46534;BME280;32260;52.008;4.752;2022-09-01T05:09:09;102193.66;;;17.21;58.81
46534;BME280;32260;52.008;4.752;2022-09-01T05:11:37;102202.63;;;17.20;58.77
46534;BME280;32260;52.008;4.752;2022-09-01T05:14:04;102196.41;;;17.18;58.93
46534;BME280;32260;52.008;4.752;2022-09-01T05:16:33;102198.25;;;17.17;59.17
46534;BME280;32260;52.008;4.752;2022-09-01T05:19:01;102199.16;;;17.14;58.79
46534;BME280;32260;52.008;4.752;2022-09-01T05:21:27;102193.81;;;17.14;59.35
46534;BME280;32260;52.008;4.752;2022-09-01T05:23:57;102200.00;;;17.17;59.30
46534;BME280;32260;52.008;4.752;2022-09-01T05:26:28;102199.09;;;17.18;58.76
46534;BME280;32260;52.008;4.752;2022-09-01T05:28:59;102199.06;;;17.19;58.41
46534;BME280;32260;52.008;4.752;2022-09-01T05:31:27;102204.47;;;17.18;58.75
46534;BME280;32260;52.008;4.752;2022-09-01T05:33:58;102191.97;;;17.17;58.56
46534;BME280;32260;52.008;4.752;2022-09-01T05:36:26;102195.56;;;17.16;58.65
46534;BME280;32260;52.008;4.752;2022-09-01T05:38:59;102194.66;;;17.17;59.26
46534;BME280;32260;52.008;4.752;2022-09-01T05:41:25;102198.25;;;17.17;59.08
46534;BME280;32260;52.008;4.752;2022-09-01T05:43:52;102200.88;;;17.19;58.92
46534;BME280;32260;52.008;4.752;2022-09-01T05:46:21;102199.00;;;17.22;58.97
46534;BME280;32260;52.008;4.752;2022-09-01T05:48:50;102206.94;;;17.25;59.19
46534;BME280;32260;52.008;4.752;2022-09-01T05:51:21;102198.78;;;17.30;59.44
46534;BME280;32260;52.008;4.752;2022-09-01T05:53:50;102201.38;;;17.33;58.99
46534;BME280;32260;52.008;4.752;2022-09-01T05:56:18;102200.44;;;17.34;58.79
46534;BME280;32260;52.008;4.752;2022-09-01T05:58:45;102212.00;;;17.36;58.68
46534;BME280;32260;52.008;4.752;2022-09-01T06:01:19;102196.75;;;17.38;58.33
46534;BME280;32260;52.008;4.752;2022-09-01T06:03:48;102212.81;;;17.38;58.63
46534;BME280;32260;52.008;4.752;2022-09-01T06:06:15;102201.19;;;17.39;58.52
46534;BME280;32260;52.008;4.752;2022-09-01T06:08:42;102207.41;;;17.41;58.36
46534;BME280;32260;52.008;4.752;2022-09-01T06:11:10;102206.50;;;17.42;57.98
46534;BME280;32260;52.008;4.752;2022-09-01T06:13:39;102202.91;;;17.42;58.14
46534;BME280;32260;52.008;4.752;2022-09-01T06:16:07;102203.81;;;17.42;57.83
46534;BME280;32260;52.008;4.752;2022-09-01T06:18:35;102205.56;;;17.43;57.95
46534;BME280;32260;52.008;4.752;2022-09-01T06:21:04;102203.72;;;17.45;57.95
46534;BME280;32260;52.008;4.752;2022-09-01T06:23:30;102199.25;;;17.46;57.71
46534;BME280;32260;52.008;4.752;2022-09-01T06:25:56;102201.00;;;17.47;58.12
46534;BME280;32260;52.008;4.752;2022-09-01T06:28:24;102201.78;;;17.51;58.07
46534;BME280;32260;52.008;4.752;2022-09-01T06:30:51;102199.03;;;17.54;57.78
46534;BME280;32260;52.008;4.752;2022-09-01T06:33:18;102198.94;;;17.57;57.61
46534;BME280;32260;52.008;4.752;2022-09-01T06:35:46;102202.41;;;17.62;57.84
46534;BME280;32260;52.008;4.752;2022-09-01T06:38:13;102201.38;;;17.66;57.64
46534;BME280;32260;52.008;4.752;2022-09-01T06:40:42;102203.94;;;17.71;57.91
46534;BME280;32260;52.008;4.752;2022-09-01T06:43:09;102208.22;;;17.76;57.67
46534;BME280;32260;52.008;4.752;2022-09-01T06:45:42;102211.53;;;17.86;57.44
46534;BME280;32260;52.008;4.752;2022-09-01T06:48:09;102205.13;;;17.90;57.47
46534;BME280;32260;52.008;4.752;2022-09-01T06:50:41;102211.25;;;17.97;57.80
46534;BME280;32260;52.008;4.752;2022-09-01T06:53:07;102209.38;;;17.99;57.56
46534;BME280;32260;52.008;4.752;2022-09-01T06:55:37;102207.38;;;18.07;57.19
46534;BME280;32260;52.008;4.752;2022-09-01T06:58:05;102216.25;;;18.09;57.63
46534;BME280;32260;52.008;4.752;2022-09-01T07:00:35;102214.13;;;18.21;57.55
46534;BME280;32260;52.008;4.752;2022-09-01T07:03:04;102219.31;;;18.27;57.17
46534;BME280;32260;52.008;4.752;2022-09-01T07:05:43;102214.56;;;18.35;56.86
46534;BME280;32260;52.008;4.752;2022-09-01T07:08:11;102216.09;;;18.44;56.63
46534;BME280;32260;52.008;4.752;2022-09-01T07:10:45;102222.16;;;18.51;56.45
46534;BME280;32260;52.008;4.752;2022-09-01T07:13:17;102224.53;;;18.60;56.40
46534;BME280;32260;52.008;4.752;2022-09-01T07:15:49;102226.22;;;18.64;55.46
46534;BME280;32260;52.008;4.752;2022-09-01T07:18:19;102223.09;;;18.76;55.51
46534;BME280;32260;52.008;4.752;2022-09-01T07:20:46;102228.28;;;18.83;54.96
46534;BME280;32260;52.008;4.752;2022-09-01T07:23:14;102219.09;;;18.90;55.24
46534;BME280;32260;52.008;4.752;2022-09-01T07:25:43;102216.19;;;18.98;54.91
46534;BME280;32260;52.008;4.752;2022-09-01T07:28:11;102227.63;;;19.04;54.86
46534;BME280;32260;52.008;4.752;2022-09-01T07:30:42;102220.13;;;19.14;54.74
46534;BME280;32260;52.008;4.752;2022-09-01T07:33:11;102223.47;;;19.21;54.46
46534;BME280;32260;52.008;4.752;2022-09-01T07:35:39;102228.75;;;19.24;53.47
46534;BME280;32260;52.008;4.752;2022-09-01T07:38:06;102222.28;;;19.30;54.20
46534;BME280;32260;52.008;4.752;2022-09-01T07:40:33;102217.53;;;19.38;53.34
46534;BME280;32260;52.008;4.752;2022-09-01T07:43:04;102226.03;;;19.51;53.78
46534;BME280;32260;52.008;4.752;2022-09-01T07:45:34;102227.56;;;19.58;53.44
46534;BME280;32260;52.008;4.752;2022-09-01T07:48:05;102224.38;;;19.72;53.23
46534;BME280;32260;52.008;4.752;2022-09-01T07:50:34;102221.31;;;19.83;53.48
46534;BME280;32260;52.008;4.752;2022-09-01T07:53:00;102221.88;;;19.93;53.11
46534;BME280;32260;52.008;4.752;2022-09-01T07:55:27;102222.25;;;20.06;52.97
46534;BME280;32260;52.008;4.752;2022-09-01T07:57:53;102222.72;;;20.17;52.89
46534;BME280;32260;52.008;4.752;2022-09-01T08:00:20;102224.94;;;20.29;52.58
46534;BME280;32260;52.008;4.752;2022-09-01T08:02:47;102217.31;;;20.41;52.21
46534;BME280;32260;52.008;4.752;2022-09-01T08:05:16;102224.09;;;20.51;51.78
46534;BME280;32260;52.008;4.752;2022-09-01T08:07:47;102226.75;;;20.75;51.31
46534;BME280;32260;52.008;4.752;2022-09-01T08:10:14;102223.28;;;20.73;51.36
46534;BME280;32260;52.008;4.752;2022-09-01T08:12:41;102222.88;;;20.82;51.36
46534;BME280;32260;52.008;4.752;2022-09-01T08:15:08;102226.91;;;20.94;51.05
46534;BME280;32260;52.008;4.752;2022-09-01T08:17:37;102229.13;;;21.05;51.22
46534;BME280;32260;52.008;4.752;2022-09-01T08:20:04;102226.03;;;21.14;51.03
46534;BME280;32260;52.008;4.752;2022-09-01T08:22:35;102222.94;;;21.23;50.05
46534;BME280;32260;52.008;4.752;2022-09-01T08:25:04;102226.03;;;21.34;50.37
46534;BME280;32260;52.008;4.752;2022-09-01T08:27:32;102223.78;;;21.46;50.66
46534;BME280;32260;52.008;4.752;2022-09-01T08:29:59;102228.66;;;21.58;50.55
46534;BME280;32260;52.008;4.752;2022-09-01T08:32:25;102215.63;;;21.68;50.63
46534;BME280;32260;52.008;4.752;2022-09-01T08:34:52;102218.78;;;21.78;49.71
46534;BME280;32260;52.008;4.752;2022-09-01T08:37:18;102214.66;;;21.90;49.61
46534;BME280;32260;52.008;4.752;2022-09-01T08:39:45;102210.78;;;21.95;49.96
46534;BME280;32260;52.008;4.752;2022-09-01T08:45:31;102214.31;;;22.36;48.93
46534;BME280;32260;52.008;4.752;2022-09-01T08:48:08;102214.06;;;22.42;49.25
46534;BME280;32260;52.008;4.752;2022-09-01T08:50:38;102215.34;;;22.52;48.69
46534;BME280;32260;52.008;4.752;2022-09-01T08:53:14;102213.72;;;22.67;48.58
46534;BME280;32260;52.008;4.752;2022-09-01T08:55:46;102211.53;;;22.75;48.28
46534;BME280;32260;52.008;4.752;2022-09-01T08:58:16;102206.50;;;22.85;47.84
46534;BME280;32260;52.008;4.752;2022-09-01T09:00:45;102205.88;;;22.98;48.17
46534;BME280;32260;52.008;4.752;2022-09-01T09:06:23;102200.78;;;23.28;46.48
46534;BME280;32260;52.008;4.752;2022-09-01T09:08:57;102205.59;;;23.39;46.83
46534;BME280;32260;52.008;4.752;2022-09-01T09:12:16;102203.22;;;23.50;46.47
46534;BME280;32260;52.008;4.752;2022-09-01T09:14:40;102202.22;;;23.69;46.54
46534;BME280;32260;52.008;4.752;2022-09-01T09:17:10;102198.41;;;23.73;44.52
46534;BME280;32260;52.008;4.752;2022-09-01T09:19:42;102203.28;;;23.82;45.68
46534;BME280;32260;52.008;4.752;2022-09-01T09:22:12;102188.34;;;23.93;44.67
46534;BME280;32260;52.008;4.752;2022-09-01T09:38:23;102182.75;;;24.60;42.50
46534;BME280;32260;52.008;4.752;2022-09-01T09:43:42;102163.88;;;24.74;43.92
46534;BME280;32260;52.008;4.752;2022-09-01T09:49:12;102166.34;;;24.93;42.63
46534;BME280;32260;52.008;4.752;2022-09-01T09:51:43;102165.63;;;25.06;42.72
46534;BME280;32260;52.008;4.752;2022-09-01T09:54:13;102157.81;;;25.15;42.27
46534;BME280;32260;52.008;4.752;2022-09-01T09:56:41;102156.47;;;25.23;42.05
46534;BME280;32260;52.008;4.752;2022-09-01T09:59:30;102156.91;;;25.45;41.98
46534;BME280;32260;52.008;4.752;2022-09-01T10:01:59;102148.66;;;25.47;40.33
46534;BME280;32260;52.008;4.752;2022-09-01T10:04:40;102149.91;;;25.56;41.31
46534;BME280;32260;52.008;4.752;2022-09-01T10:07:29;102148.56;;;25.77;41.36
46534;BME280;32260;52.008;4.752;2022-09-01T10:09:57;102150.41;;;25.77;41.31
46534;BME280;32260;52.008;4.752;2022-09-01T10:12:26;102144.69;;;25.81;40.56
46534;BME280;32260;52.008;4.752;2022-09-01T10:15:06;102140.53;;;25.76;37.32
46534;BME280;32260;52.008;4.752;2022-09-01T10:17:39;102144.00;;;25.92;38.37
46534;BME280;32260;52.008;4.752;2022-09-01T10:22:45;102140.19;;;26.09;39.84
46534;BME280;32260;52.008;4.752;2022-09-01T10:25:17;102136.69;;;26.22;38.12
46534;BME280;32260;52.008;4.752;2022-09-01T10:27:48;102142.06;;;26.36;39.14
46534;BME280;32260;52.008;4.752;2022-09-01T10:30:19;102139.63;;;26.46;39.26
46534;BME280;32260;52.008;4.752;2022-09-01T10:33:00;102138.31;;;26.52;38.30
46534;BME280;32260;52.008;4.752;2022-09-01T10:35:31;102140.06;;;26.53;38.13
46534;BME280;32260;52.008;4.752;2022-09-01T10:37:59;102129.41;;;26.50;37.10
46534;BME280;32260;52.008;4.752;2022-09-01T10:46:07;102128.63;;;26.75;36.25
46534;BME280;32260;52.008;4.752;2022-09-01T10:48:35;102127.56;;;26.77;37.85
46534;BME280;32260;52.008;4.752;2022-09-01T10:53:56;102126.06;;;26.99;35.79
46534;BME280;32260;52.008;4.752;2022-09-01T10:56:42;102130.88;;;27.08;37.13
46534;BME280;32260;52.008;4.752;2022-09-01T10:59:27;102125.53;;;27.20;34.70
46534;BME280;32260;52.008;4.752;2022-09-01T11:15:37;102126.13;;;27.51;34.89
46534;BME280;32260;52.008;4.752;2022-09-01T11:18:14;102113.03;;;27.56;35.57
46534;BME280;32260;52.008;4.752;2022-09-01T11:20:42;102116.97;;;27.52;34.17
46534;BME280;32260;52.008;4.752;2022-09-01T11:26:43;102116.28;;;27.74;34.42
46534;BME280;32260;52.008;4.752;2022-09-01T11:29:07;102115.19;;;27.76;34.07
46534;BME280;32260;52.008;4.752;2022-09-01T11:31:41;102109.91;;;27.86;32.65
46534;BME280;32260;52.008;4.752;2022-09-01T11:34:20;102111.66;;;27.87;32.57
46534;BME280;32260;52.008;4.752;2022-09-01T11:39:32;102102.91;;;27.95;30.69
46534;BME280;32260;52.008;4.752;2022-09-01T11:42:52;102102.69;;;27.98;30.55
46534;BME280;32260;52.008;4.752;2022-09-01T11:45:17;102093.53;;;27.99;32.60
46534;BME280;32260;52.008;4.752;2022-09-01T11:47:47;102100.50;;;28.03;31.98
46534;BME280;32260;52.008;4.752;2022-09-01T11:52:57;102092.88;;;28.08;30.51
46534;BME280;32260;52.008;4.752;2022-09-01T11:55:46;102086.09;;;28.14;31.16
46534;BME280;32260;52.008;4.752;2022-09-01T12:01:38;102082.66;;;28.48;32.00
46534;BME280;32260;52.008;4.752;2022-09-01T12:07:02;102078.84;;;28.50;30.47
46534;BME280;32260;52.008;4.752;2022-09-01T12:09:35;102079.34;;;28.55;28.58
46534;BME280;32260;52.008;4.752;2022-09-01T12:12:03;102064.31;;;28.50;29.47
46534;BME280;32260;52.008;4.752;2022-09-01T12:14:30;102076.38;;;28.58;31.15
46534;BME280;32260;52.008;4.752;2022-09-01T12:17:02;102066.63;;;28.67;30.55
46534;BME280;32260;52.008;4.752;2022-09-01T12:19:33;102071.00;;;28.70;30.35
46534;BME280;32260;52.008;4.752;2022-09-01T12:22:14;102070.41;;;28.89;30.70
46534;BME280;32260;52.008;4.752;2022-09-01T12:24:43;102069.78;;;28.85;28.98
46534;BME280;32260;52.008;4.752;2022-09-01T12:27:10;102068.69;;;28.88;28.75
46534;BME280;32260;52.008;4.752;2022-09-01T12:29:37;102062.09;;;28.91;29.57
46534;BME280;32260;52.008;4.752;2022-09-01T12:32:04;102062.97;;;28.91;31.02
46534;BME280;32260;52.008;4.752;2022-09-01T12:37:21;102059.03;;;29.18;29.51
46534;BME280;32260;52.008;4.752;2022-09-01T12:39:51;102054.06;;;29.12;28.23
46534;BME280;32260;52.008;4.752;2022-09-01T12:45:00;102051.34;;;29.23;29.63
46534;BME280;32260;52.008;4.752;2022-09-01T12:52:52;102047.25;;;29.17;28.69
46534;BME280;32260;52.008;4.752;2022-09-01T12:55:23;102045.38;;;29.18;28.98
46534;BME280;32260;52.008;4.752;2022-09-01T12:57:53;102049.09;;;29.28;29.18
46534;BME280;32260;52.008;4.752;2022-09-01T13:03:38;102037.47;;;29.49;28.46
46534;BME280;32260;52.008;4.752;2022-09-01T13:06:04;102039.81;;;29.65;29.44
46534;BME280;32260;52.008;4.752;2022-09-01T13:08:33;102038.91;;;29.76;27.64
46534;BME280;32260;52.008;4.752;2022-09-01T13:11:10;102039.41;;;29.81;26.24
46534;BME280;32260;52.008;4.752;2022-09-01T13:13:39;102029.00;;;29.75;26.98
46534;BME280;32260;52.008;4.752;2022-09-01T13:16:05;102034.94;;;29.80;28.16
46534;BME280;32260;52.008;4.752;2022-09-01T13:18:40;102032.41;;;29.88;27.29
46534;BME280;32260;52.008;4.752;2022-09-01T13:21:07;102034.41;;;29.97;27.05
46534;BME280;32260;52.008;4.752;2022-09-01T13:23:33;102031.16;;;30.04;27.35
46534;BME280;32260;52.008;4.752;2022-09-01T13:26:00;102020.56;;;30.10;27.04
46534;BME280;32260;52.008;4.752;2022-09-01T13:28:27;102021.19;;;30.14;26.14
46534;BME280;32260;52.008;4.752;2022-09-01T13:30:57;102024.25;;;30.21;27.48
46534;BME280;32260;52.008;4.752;2022-09-01T13:33:25;102017.53;;;30.25;26.80
46534;BME280;32260;52.008;4.752;2022-09-01T13:35:52;102019.38;;;30.24;26.43
46534;BME280;32260;52.008;4.752;2022-09-01T13:38:19;102023.81;;;30.37;26.01
46534;BME280;32260;52.008;4.752;2022-09-01T13:40:47;102014.34;;;30.41;26.43
46534;BME280;32260;52.008;4.752;2022-09-01T13:43:17;102009.13;;;30.38;24.82
46534;BME280;32260;52.008;4.752;2022-09-01T13:45:45;102014.81;;;30.46;25.61
46534;BME280;32260;52.008;4.752;2022-09-01T13:48:11;102007.84;;;30.53;26.30
46534;BME280;32260;52.008;4.752;2022-09-01T13:50:38;102007.25;;;30.49;24.34
46534;BME280;32260;52.008;4.752;2022-09-01T13:53:04;102003.13;;;30.44;24.75
46534;BME280;32260;52.008;4.752;2022-09-01T13:55:33;102011.59;;;30.52;24.97
46534;BME280;32260;52.008;4.752;2022-09-01T13:58:00;102007.03;;;30.62;25.84
46534;BME280;32260;52.008;4.752;2022-09-01T14:00:30;101997.56;;;30.66;25.54
46534;BME280;32260;52.008;4.752;2022-09-01T14:03:00;102000.75;;;30.72;25.42
46534;BME280;32260;52.008;4.752;2022-09-01T14:05:31;102001.69;;;30.82;25.45
46534;BME280;32260;52.008;4.752;2022-09-01T14:07:59;101993.94;;;30.87;25.37
46534;BME280;32260;52.008;4.752;2022-09-01T14:10:29;101987.00;;;30.83;24.70
46534;BME280;32260;52.008;4.752;2022-09-01T14:12:57;101990.66;;;30.93;25.53
46534;BME280;32260;52.008;4.752;2022-09-01T14:15:24;101991.91;;;30.89;25.43
46534;BME280;32260;52.008;4.752;2022-09-01T14:17:53;101989.91;;;30.91;24.55
46534;BME280;32260;52.008;4.752;2022-09-01T14:20:23;101997.38;;;30.89;25.08
46534;BME280;32260;52.008;4.752;2022-09-01T14:22:49;101984.28;;;30.93;23.99
46534;BME280;32260;52.008;4.752;2022-09-01T14:25:17;101990.09;;;31.00;25.09
46534;BME280;32260;52.008;4.752;2022-09-01T14:27:45;101980.22;;;31.08;23.75
46534;BME280;32260;52.008;4.752;2022-09-01T14:30:16;101977.97;;;31.23;24.75
46534;BME280;32260;52.008;4.752;2022-09-01T14:32:43;101969.75;;;31.23;24.39
46534;BME280;32260;52.008;4.752;2022-09-01T14:35:10;101972.19;;;31.26;24.75
46534;BME280;32260;52.008;4.752;2022-09-01T14:37:37;101962.84;;;31.29;23.33
46534;BME280;32260;52.008;4.752;2022-09-01T14:40:04;101971.09;;;31.39;24.97
46534;BME280;32260;52.008;4.752;2022-09-01T14:42:32;101965.59;;;31.39;25.38